Bedford, IN

7:32 AM EDT on July 07, 2015 (GMT -0400)
APRSWXNET | | Change Station
CLOSE
Current Station
Personal Weather Station
Location: Bedford, IN
Elevation: 685 ft
Nearby Weather Stations
Active Advisory: Flood Warning

Elev 685 ft 38.86 °N, 86.48 °W | Updated 25 minutes ago

Mostly Cloudy
Mostly Cloudy
76 °F
Feels Like 75 °F
N
1
Wind Variable Wind from SSE
Gusts 4.0 mph

Today
High -- | Low -- °F
--% Chance of Precip.
Yesterday
High -- | Low -- °F
Precip. -- in
6:27 AM 9:13 PM
Waning Gibbous, 66% visible
Pressure 29.92 in
Visibility 10.0 miles
Clouds Overcast 1300 ft
Heat Index 75 °F
Dew Point 76 °F
Humidity 100%
Rainfall in
Snow Depth Not available.
UV 0 out of 12
Pollen .50 out of 12
Air Quality Not available.
Flu Activity Not available.
METAR KBMG 071053Z 21006KT 10SM OVC013 24/22 A2994 RMK AO2 SLP130 T02440222

More Conditions Fewer Conditions

Pressure 29.92 in
Visibility 10.0 miles
Clouds Overcast 1300 ft
Heat Index 75 °F
Dew Point 76 °F
Humidity 100%
Rainfall in
Snow Depth Not available.
UV 0 out of 12
Pollen .50 out of 12
Air Quality Not available.
Flu Activity Not available.
METAR KBMG 071053Z 21006KT 10SM OVC013 24/22 A2994 RMK AO2 SLP130 T02440222

More Conditions Fewer Conditions

10-Day Weather Forecast

×

Almanac

Astronomy

Jul. 07, 2015 Rise Set
Actual Time
Civil Twilight
Nautical Twilight
Astronomical Twilight
Moon
Length of Visible Light
Length of Day
Tomorrow will be .
, % of the Moon is Illuminated

Today's Extremes

State Highs State Lows

Community

WunderPhotos

Upload Photos

1,835,768 photos uploaded!

WunderBlogs® & News

Nearby

Air Quality

  Air Quality AQ Index Pollutant
Not available.

Snow Depth

Station Depth Elevation

Earthquake Activity

City Distance Mag. Time & Date
Minimum magnitude displayed is 2.5.

Coastal Water Temperatures

Place Temperature

Stations

Nearby Weather Stations

Station Location Temp. Windchill Dew Point Humidity Wind Precip. Elev Updated Type
                   
Flood Warning
Statement as of 11:06 AM EDT on July 06, 2015

The Flood Warning continues for
the muscatatuck river at Wheeler Hollow.
* Until further notice.
* Flood stage is 16.0 feet.
* Forecast... the river is forecast to have a maximum value of 17.3
feet early tomorrow.
* At 18.0 feet... floods area in a few low spots and Woodland areas
along the river. Residential property is not directly at this
point.


Lat... Lon 3878 8591 3878 8603 3880 8615 3876 8618
      3873 8605 3874 8591